DAUO/ELU METAR and TAF weather

Enter ICAO airport designator
Station Type Date Time Source
DAUO METAR 2022/01/18 07:00 UTC NOAA

DAUO 180700Z 24003KT 8000 NSC 02/M01 Q1033


Station Type Date Time Source
DAUO Decoded METAR 2022/01/18 07:00 UTC NOAA

El Oued, Algeria (DAUO) 33-30N 006-07E 63M
Jan 18, 2022 - 02:00 AM EST / 2022.01.18 0700 UTC
Wind: from the WSW (240 degrees) at 3 MPH (3 KT):0
Visibility: 4 mile(s):0
Temperature: 35 F (2 C)
Dew Point: 30 F (-1 C)
Relative Humidity: 80%
Pressure (altimeter): 30.50 in. Hg (1033 hPa)
ob: DAUO 180700Z 24003KT 8000 NSC 02/M01 Q1033
cycle: 7

Station Type Date Time Source
DAUO TAF 2021/07/18 12:00 UTC NOAA

TAF DAUO 181100Z 1812/1821 10010KT CAVOK

Example: see airport list